KIRK

Details ICAO KIRK (IRK)
Name KIRKSVILLE RGNL
Region United States
Timezone America/Chicago (UTC-5.0)
Plans Departing 3
Arriving 5
Stats Elevation 966 ft / 294 m (AMSL)
Location 40.095137° -92.545961°
Runways 2
Magnetic Variation 0.061° E
Sunrise 2018-05-22 10:50:19 UTC / 2018-05-22 05:50:19 Local
Sunset 2018-05-23 01:26:17 UTC / 2018-05-22 20:26:17 Local
Advertisement - Login to hide

Runways

ID Width Length Bearing (true) Bearing (mag) Surface Threshold Offset Overrun Length
09 100 ft / 30 m 1,390 ft / 424 m 90.68° 90.62° Dirt 0 ft / 0 m 0 ft / 0 m
18 100 ft / 30 m 6,015 ft / 1,833 m 180.48° 180.42° Concrete 0 ft / 0 m 0 ft / 0 m
27 100 ft / 30 m 1,390 ft / 424 m 270.68° 270.62° Dirt 0 ft / 0 m 0 ft / 0 m
36 100 ft / 30 m 6,015 ft / 1,833 m 0.48° 0.42° Concrete 0 ft / 0 m 0 ft / 0 m

Map

Weather


0- 5 10 15 20 25 30 35+ Temperature / ° C

Clouds and Precipitation
Forecast for 2018-05-23 06:00 UTC. Updated 31 minutes ago

Ground ~20,000 ft ~40,000 ft Winds

METAR

KIRK 230455Z AUTO 12003KT 10SM CLR 18/17 A3007 RMK AO2 SLP181 T01830167

TAF

Not found

Frequencies

Recorded 121.12 MHz ASOS
Unicom 122.80 MHz CTAF/UNICOM
Warning: Do not use this data for real-world aviation or navigation. No guarantee of current accuracy is given.